« Back
NWS Peachtree City, Ga » Text Product » ATL Terminal Aerodrome Forecast


Printer-friendly Version
Current Version              Previous Versions:   1  2  3  4  5  6  7  8  9  

Terminal Aerodrome Forecast

640
FTUS42 KFFC 201246 AAA
TAFATL
TAF AMD
KATL 201246Z 2013/2118 05005KT P6SM -RA BKN018 OVC050
     FM201400 05005KT P6SM VCSH OVC020
     FM201900 08005KT P6SM BKN040
     FM202200 35004KT P6SM SCT050
     FM210700 05004KT 5SM BR OVC025
     FM211200 06005KT 4SM BR OVC004
     FM211500 08007KT P6SM SCT040=



USA.gov is the U.S. government's official web portal to all federal, state and local government web resources and services.